sensor_id;sensor_type;location;lat;lon;timestamp;P1;durP1;ratioP1;P2;durP2;ratioP2
78406;SDS011;67692;51.074;-1.790;2024-02-21T00:00:13;6.93;;;1.88;;
78406;SDS011;67692;51.074;-1.790;2024-02-21T00:02:42;18.90;;;2.35;;
78406;SDS011;67692;51.074;-1.790;2024-02-21T00:05:09;11.73;;;2.00;;
78406;SDS011;67692;51.074;-1.790;2024-02-21T00:07:35;10.50;;;2.05;;
78406;SDS011;67692;51.074;-1.790;2024-02-21T00:10:02;13.82;;;2.90;;
78406;SDS011;67692;51.074;-1.790;2024-02-21T00:12:30;16.70;;;2.35;;
78406;SDS011;67692;51.074;-1.790;2024-02-21T00:14:57;11.52;;;1.92;;
78406;SDS011;67692;51.074;-1.790;2024-02-21T00:17:24;8.32;;;1.65;;
78406;SDS011;67692;51.074;-1.790;2024-02-21T00:19:51;11.70;;;2.17;;
78406;SDS011;67692;51.074;-1.790;2024-02-21T00:22:18;16.77;;;2.33;;
78406;SDS011;67692;51.074;-1.790;2024-02-21T00:24:44;11.57;;;2.70;;
78406;SDS011;67692;51.074;-1.790;2024-02-21T00:27:11;8.80;;;2.75;;
78406;SDS011;67692;51.074;-1.790;2024-02-21T00:29:39;15.75;;;2.47;;
78406;SDS011;67692;51.074;-1.790;2024-02-21T00:32:06;10.23;;;2.53;;
78406;SDS011;67692;51.074;-1.790;2024-02-21T00:34:32;13.32;;;2.90;;
78406;SDS011;67692;51.074;-1.790;2024-02-21T00:37:00;10.63;;;2.92;;
78406;SDS011;67692;51.074;-1.790;2024-02-21T00:39:27;12.60;;;3.08;;
78406;SDS011;67692;51.074;-1.790;2024-02-21T00:41:53;16.95;;;2.85;;
78406;SDS011;67692;51.074;-1.790;2024-02-21T00:44:20;12.02;;;2.70;;
78406;SDS011;67692;51.074;-1.790;2024-02-21T00:46:48;15.75;;;3.00;;
78406;SDS011;67692;51.074;-1.790;2024-02-21T00:49:15;13.02;;;2.50;;
78406;SDS011;67692;51.074;-1.790;2024-02-21T00:51:42;12.02;;;2.65;;
78406;SDS011;67692;51.074;-1.790;2024-02-21T00:54:09;15.73;;;3.40;;
78406;SDS011;67692;51.074;-1.790;2024-02-21T00:56:35;15.55;;;2.85;;
78406;SDS011;67692;51.074;-1.790;2024-02-21T00:59:02;14.18;;;3.05;;
78406;SDS011;67692;51.074;-1.790;2024-02-21T01:01:29;18.65;;;3.10;;
78406;SDS011;67692;51.074;-1.790;2024-02-21T01:03:57;9.85;;;2.70;;
78406;SDS011;67692;51.074;-1.790;2024-02-21T01:06:23;15.80;;;3.38;;
78406;SDS011;67692;51.074;-1.790;2024-02-21T01:08:50;13.18;;;2.33;;
78406;SDS011;67692;51.074;-1.790;2024-02-21T01:11:17;19.05;;;3.42;;
78406;SDS011;67692;51.074;-1.790;2024-02-21T01:13:44;8.15;;;2.50;;
78406;SDS011;67692;51.074;-1.790;2024-02-21T01:16:10;16.05;;;2.95;;
78406;SDS011;67692;51.074;-1.790;2024-02-21T01:18:37;13.52;;;2.10;;
78406;SDS011;67692;51.074;-1.790;2024-02-21T01:21:06;9.02;;;2.58;;
78406;SDS011;67692;51.074;-1.790;2024-02-21T01:23:33;14.52;;;2.50;;
78406;SDS011;67692;51.074;-1.790;2024-02-21T01:26:00;13.52;;;2.55;;
78406;SDS011;67692;51.074;-1.790;2024-02-21T01:28:26;14.68;;;2.25;;
78406;SDS011;67692;51.074;-1.790;2024-02-21T01:30:53;9.77;;;2.30;;
78406;SDS011;67692;51.074;-1.790;2024-02-21T01:33:20;11.43;;;1.63;;
78406;SDS011;67692;51.074;-1.790;2024-02-21T01:35:46;9.73;;;2.55;;
78406;SDS011;67692;51.074;-1.790;2024-02-21T01:38:15;11.50;;;1.63;;
78406;SDS011;67692;51.074;-1.790;2024-02-21T01:40:42;10.50;;;1.73;;
78406;SDS011;67692;51.074;-1.790;2024-02-21T01:43:15;5.75;;;1.42;;
78406;SDS011;67692;51.074;-1.790;2024-02-21T01:45:42;8.07;;;1.20;;
78406;SDS011;67692;51.074;-1.790;2024-02-21T01:48:09;12.07;;;1.95;;
78406;SDS011;67692;51.074;-1.790;2024-02-21T01:50:36;17.38;;;2.17;;
78406;SDS011;67692;51.074;-1.790;2024-02-21T01:53:03;10.75;;;1.50;;
78406;SDS011;67692;51.074;-1.790;2024-02-21T01:55:31;8.68;;;1.52;;
78406;SDS011;67692;51.074;-1.790;2024-02-21T01:57:58;8.15;;;1.50;;
78406;SDS011;67692;51.074;-1.790;2024-02-21T02:00:25;8.90;;;1.55;;
78406;SDS011;67692;51.074;-1.790;2024-02-21T02:02:52;9.88;;;1.48;;
78406;SDS011;67692;51.074;-1.790;2024-02-21T02:05:20;11.20;;;1.80;;
78406;SDS011;67692;51.074;-1.790;2024-02-21T02:07:48;8.55;;;1.63;;
78406;SDS011;67692;51.074;-1.790;2024-02-21T02:10:15;9.93;;;1.50;;
78406;SDS011;67692;51.074;-1.790;2024-02-21T02:12:43;11.00;;;1.95;;
78406;SDS011;67692;51.074;-1.790;2024-02-21T02:15:09;7.55;;;1.83;;
78406;SDS011;67692;51.074;-1.790;2024-02-21T02:17:36;10.02;;;1.98;;
78406;SDS011;67692;51.074;-1.790;2024-02-21T02:20:03;6.72;;;1.20;;
78406;SDS011;67692;51.074;-1.790;2024-02-21T02:22:30;17.05;;;1.85;;
78406;SDS011;67692;51.074;-1.790;2024-02-21T02:25:01;12.18;;;1.80;;
78406;SDS011;67692;51.074;-1.790;2024-02-21T02:27:28;10.32;;;1.65;;
78406;SDS011;67692;51.074;-1.790;2024-02-21T02:29:54;11.88;;;1.70;;
78406;SDS011;67692;51.074;-1.790;2024-02-21T02:32:21;10.35;;;1.70;;
78406;SDS011;67692;51.074;-1.790;2024-02-21T02:34:48;9.57;;;1.75;;
78406;SDS011;67692;51.074;-1.790;2024-02-21T02:37:14;11.20;;;1.80;;
78406;SDS011;67692;51.074;-1.790;2024-02-21T02:39:41;10.05;;;1.67;;
78406;SDS011;67692;51.074;-1.790;2024-02-21T02:42:09;9.05;;;2.00;;
78406;SDS011;67692;51.074;-1.790;2024-02-21T02:44:36;10.82;;;1.73;;
78406;SDS011;67692;51.074;-1.790;2024-02-21T02:47:03;17.48;;;2.13;;
78406;SDS011;67692;51.074;-1.790;2024-02-21T02:49:29;9.50;;;1.55;;
78406;SDS011;67692;51.074;-1.790;2024-02-21T02:51:56;13.00;;;1.58;;
78406;SDS011;67692;51.074;-1.790;2024-02-21T02:54:23;9.57;;;1.65;;
78406;SDS011;67692;51.074;-1.790;2024-02-21T02:56:49;11.25;;;1.60;;
78406;SDS011;67692;51.074;-1.790;2024-02-21T02:59:18;12.65;;;1.65;;
78406;SDS011;67692;51.074;-1.790;2024-02-21T03:01:44;12.07;;;2.47;;
78406;SDS011;67692;51.074;-1.790;2024-02-21T03:04:11;8.40;;;1.65;;
78406;SDS011;67692;51.074;-1.790;2024-02-21T03:06:38;8.65;;;2.40;;
78406;SDS011;67692;51.074;-1.790;2024-02-21T03:09:05;14.02;;;1.25;;
78406;SDS011;67692;51.074;-1.790;2024-02-21T03:11:33;7.63;;;1.75;;
78406;SDS011;67692;51.074;-1.790;2024-02-21T03:14:00;12.93;;;1.60;;
78406;SDS011;67692;51.074;-1.790;2024-02-21T03:16:28;8.75;;;1.73;;
78406;SDS011;67692;51.074;-1.790;2024-02-21T03:18:55;9.85;;;1.23;;
78406;SDS011;67692;51.074;-1.790;2024-02-21T03:21:21;12.38;;;2.00;;
78406;SDS011;67692;51.074;-1.790;2024-02-21T03:23:48;10.95;;;1.58;;
78406;SDS011;67692;51.074;-1.790;2024-02-21T03:26:15;10.05;;;1.42;;
78406;SDS011;67692;51.074;-1.790;2024-02-21T03:28:42;11.40;;;1.42;;
78406;SDS011;67692;51.074;-1.790;2024-02-21T03:31:10;15.20;;;1.60;;
78406;SDS011;67692;51.074;-1.790;2024-02-21T03:33:39;14.63;;;1.42;;
78406;SDS011;67692;51.074;-1.790;2024-02-21T03:36:06;8.20;;;1.35;;
78406;SDS011;67692;51.074;-1.790;2024-02-21T03:38:38;8.10;;;1.27;;
78406;SDS011;67692;51.074;-1.790;2024-02-21T03:41:05;9.27;;;1.33;;
78406;SDS011;67692;51.074;-1.790;2024-02-21T03:43:32;9.68;;;2.20;;
78406;SDS011;67692;51.074;-1.790;2024-02-21T03:45:58;10.07;;;1.27;;
78406;SDS011;67692;51.074;-1.790;2024-02-21T03:48:26;15.43;;;2.50;;
78406;SDS011;67692;51.074;-1.790;2024-02-21T03:50:54;16.55;;;1.48;;
78406;SDS011;67692;51.074;-1.790;2024-02-21T03:53:21;9.65;;;1.52;;
78406;SDS011;67692;51.074;-1.790;2024-02-21T03:55:47;8.85;;;1.38;;
78406;SDS011;67692;51.074;-1.790;2024-02-21T03:58:14;7.53;;;1.92;;
78406;SDS011;67692;51.074;-1.790;2024-02-21T04:00:41;9.90;;;1.63;;
78406;SDS011;67692;51.074;-1.790;2024-02-21T04:03:07;11.75;;;1.55;;
78406;SDS011;67692;51.074;-1.790;2024-02-21T04:05:34;9.60;;;1.48;;
78406;SDS011;67692;51.074;-1.790;2024-02-21T04:08:04;11.10;;;1.88;;
78406;SDS011;67692;51.074;-1.790;2024-02-21T04:10:31;12.18;;;1.42;;
78406;SDS011;67692;51.074;-1.790;2024-02-21T04:12:58;14.90;;;1.77;;
78406;SDS011;67692;51.074;-1.790;2024-02-21T04:15:25;6.68;;;1.20;;
78406;SDS011;67692;51.074;-1.790;2024-02-21T04:17:51;11.57;;;1.65;;
78406;SDS011;67692;51.074;-1.790;2024-02-21T04:20:18;5.32;;;1.30;;
78406;SDS011;67692;51.074;-1.790;2024-02-21T04:22:45;7.57;;;1.50;;
78406;SDS011;67692;51.074;-1.790;2024-02-21T04:25:13;12.27;;;1.75;;
78406;SDS011;67692;51.074;-1.790;2024-02-21T04:27:39;9.52;;;1.73;;
78406;SDS011;67692;51.074;-1.790;2024-02-21T04:30:07;10.75;;;1.58;;
78406;SDS011;67692;51.074;-1.790;2024-02-21T04:32:34;8.88;;;1.58;;
78406;SDS011;67692;51.074;-1.790;2024-02-21T04:35:01;5.72;;;1.30;;
78406;SDS011;67692;51.074;-1.790;2024-02-21T04:37:28;10.80;;;1.60;;
78406;SDS011;67692;51.074;-1.790;2024-02-21T04:39:54;10.63;;;1.58;;
78406;SDS011;67692;51.074;-1.790;2024-02-21T04:42:22;12.23;;;1.65;;
78406;SDS011;67692;51.074;-1.790;2024-02-21T04:44:50;6.65;;;1.30;;
78406;SDS011;67692;51.074;-1.790;2024-02-21T04:47:16;11.48;;;1.33;;
78406;SDS011;67692;51.074;-1.790;2024-02-21T04:49:43;14.40;;;1.50;;
78406;SDS011;67692;51.074;-1.790;2024-02-21T04:52:11;13.35;;;1.70;;
78406;SDS011;67692;51.074;-1.790;2024-02-21T04:54:37;10.52;;;1.83;;
78406;SDS011;67692;51.074;-1.790;2024-02-21T04:57:05;13.00;;;1.70;;
78406;SDS011;67692;51.074;-1.790;2024-02-21T04:59:33;9.75;;;2.05;;
78406;SDS011;67692;51.074;-1.790;2024-02-21T05:02:01;15.00;;;1.50;;
78406;SDS011;67692;51.074;-1.790;2024-02-21T05:04:27;10.38;;;1.42;;
78406;SDS011;67692;51.074;-1.790;2024-02-21T05:06:54;10.55;;;1.40;;
78406;SDS011;67692;51.074;-1.790;2024-02-21T05:09:21;7.75;;;1.17;;
78406;SDS011;67692;51.074;-1.790;2024-02-21T05:11:47;11.95;;;1.83;;
78406;SDS011;67692;51.074;-1.790;2024-02-21T05:14:14;7.13;;;1.27;;
78406;SDS011;67692;51.074;-1.790;2024-02-21T05:16:42;9.75;;;1.58;;
78406;SDS011;67692;51.074;-1.790;2024-02-21T05:19:09;4.05;;;1.05;;
78406;SDS011;67692;51.074;-1.790;2024-02-21T05:21:35;6.72;;;1.65;;
78406;SDS011;67692;51.074;-1.790;2024-02-21T05:24:02;8.98;;;1.73;;
78406;SDS011;67692;51.074;-1.790;2024-02-21T05:26:29;7.28;;;1.63;;
78406;SDS011;67692;51.074;-1.790;2024-02-21T05:28:56;11.35;;;1.50;;
78406;SDS011;67692;51.074;-1.790;2024-02-21T05:31:24;12.10;;;1.95;;
78406;SDS011;67692;51.074;-1.790;2024-02-21T05:33:52;5.30;;;1.02;;
78406;SDS011;67692;51.074;-1.790;2024-02-21T05:36:19;6.75;;;1.27;;
78406;SDS011;67692;51.074;-1.790;2024-02-21T05:38:46;9.05;;;1.38;;
78406;SDS011;67692;51.074;-1.790;2024-02-21T05:41:12;8.48;;;1.38;;
78406;SDS011;67692;51.074;-1.790;2024-02-21T05:43:40;7.82;;;2.13;;
78406;SDS011;67692;51.074;-1.790;2024-02-21T05:46:06;5.82;;;1.23;;
78406;SDS011;67692;51.074;-1.790;2024-02-21T05:48:33;4.70;;;1.08;;
78406;SDS011;67692;51.074;-1.790;2024-02-21T05:51:02;6.85;;;1.40;;
78406;SDS011;67692;51.074;-1.790;2024-02-21T05:53:29;8.57;;;1.42;;
78406;SDS011;67692;51.074;-1.790;2024-02-21T05:55:56;5.78;;;1.05;;
78406;SDS011;67692;51.074;-1.790;2024-02-21T05:58:23;8.10;;;1.30;;
78406;SDS011;67692;51.074;-1.790;2024-02-21T06:00:49;8.95;;;1.40;;
78406;SDS011;67692;51.074;-1.790;2024-02-21T06:03:16;10.35;;;1.17;;
78406;SDS011;67692;51.074;-1.790;2024-02-21T06:05:43;7.53;;;1.48;;
78406;SDS011;67692;51.074;-1.790;2024-02-21T06:08:11;8.35;;;1.58;;
78406;SDS011;67692;51.074;-1.790;2024-02-21T06:10:37;9.45;;;1.30;;
78406;SDS011;67692;51.074;-1.790;2024-02-21T06:13:04;7.55;;;1.83;;
78406;SDS011;67692;51.074;-1.790;2024-02-21T06:15:31;7.90;;;1.17;;
78406;SDS011;67692;51.074;-1.790;2024-02-21T06:17:57;11.05;;;1.88;;
78406;SDS011;67692;51.074;-1.790;2024-02-21T06:20:24;8.07;;;1.48;;
78406;SDS011;67692;51.074;-1.790;2024-02-21T06:22:51;11.07;;;2.30;;
78406;SDS011;67692;51.074;-1.790;2024-02-21T06:25:19;15.85;;;2.00;;
78406;SDS011;67692;51.074;-1.790;2024-02-21T06:27:45;8.15;;;1.70;;
78406;SDS011;67692;51.074;-1.790;2024-02-21T06:30:12;12.35;;;1.92;;
78406;SDS011;67692;51.074;-1.790;2024-02-21T06:32:39;9.30;;;1.98;;
78406;SDS011;67692;51.074;-1.790;2024-02-21T06:35:06;11.05;;;1.77;;
78406;SDS011;67692;51.074;-1.790;2024-02-21T06:37:33;14.05;;;1.38;;
78406;SDS011;67692;51.074;-1.790;2024-02-21T06:40:00;13.40;;;1.55;;
78406;SDS011;67692;51.074;-1.790;2024-02-21T06:42:28;20.83;;;2.35;;
78406;SDS011;67692;51.074;-1.790;2024-02-21T06:44:55;11.45;;;1.70;;
78406;SDS011;67692;51.074;-1.790;2024-02-21T06:47:22;10.85;;;1.90;;
78406;SDS011;67692;51.074;-1.790;2024-02-21T06:49:49;12.80;;;1.98;;
78406;SDS011;67692;51.074;-1.790;2024-02-21T06:52:17;12.40;;;2.63;;
78406;SDS011;67692;51.074;-1.790;2024-02-21T06:54:45;13.80;;;1.75;;
78406;SDS011;67692;51.074;-1.790;2024-02-21T06:57:12;7.70;;;2.10;;
78406;SDS011;67692;51.074;-1.790;2024-02-21T06:59:40;11.32;;;2.13;;
78406;SDS011;67692;51.074;-1.790;2024-02-21T07:02:07;12.18;;;2.65;;
78406;SDS011;67692;51.074;-1.790;2024-02-21T07:04:34;11.57;;;1.80;;
78406;SDS011;67692;51.074;-1.790;2024-02-21T07:07:01;12.73;;;1.58;;
78406;SDS011;67692;51.074;-1.790;2024-02-21T07:09:27;10.85;;;1.75;;
78406;SDS011;67692;51.074;-1.790;2024-02-21T07:11:57;12.80;;;1.70;;
78406;SDS011;67692;51.074;-1.790;2024-02-21T07:14:23;8.60;;;1.50;;
78406;SDS011;67692;51.074;-1.790;2024-02-21T07:16:52;9.00;;;1.50;;
78406;SDS011;67692;51.074;-1.790;2024-02-21T07:19:18;8.35;;;1.75;;
78406;SDS011;67692;51.074;-1.790;2024-02-21T07:21:45;6.40;;;1.27;;
78406;SDS011;67692;51.074;-1.790;2024-02-21T07:24:13;8.52;;;1.38;;
78406;SDS011;67692;51.074;-1.790;2024-02-21T07:26:40;6.53;;;1.40;;
78406;SDS011;67692;51.074;-1.790;2024-02-21T07:29:07;9.23;;;2.00;;
78406;SDS011;67692;51.074;-1.790;2024-02-21T07:31:38;11.88;;;1.85;;
78406;SDS011;67692;51.074;-1.790;2024-02-21T07:34:07;11.15;;;1.75;;
78406;SDS011;67692;51.074;-1.790;2024-02-21T07:36:34;10.82;;;1.60;;
78406;SDS011;67692;51.074;-1.790;2024-02-21T07:39:02;12.27;;;1.58;;
78406;SDS011;67692;51.074;-1.790;2024-02-21T07:41:29;13.82;;;1.52;;
78406;SDS011;67692;51.074;-1.790;2024-02-21T07:43:56;8.13;;;1.23;;
78406;SDS011;67692;51.074;-1.790;2024-02-21T07:46:23;8.23;;;1.65;;
78406;SDS011;67692;51.074;-1.790;2024-02-21T07:48:50;5.90;;;1.38;;
78406;SDS011;67692;51.074;-1.790;2024-02-21T07:51:18;4.38;;;1.10;;
78406;SDS011;67692;51.074;-1.790;2024-02-21T07:53:45;7.93;;;1.38;;
78406;SDS011;67692;51.074;-1.790;2024-02-21T07:56:12;6.93;;;1.08;;
78406;SDS011;67692;51.074;-1.790;2024-02-21T07:58:40;9.02;;;1.08;;
78406;SDS011;67692;51.074;-1.790;2024-02-21T08:01:06;8.80;;;1.40;;
78406;SDS011;67692;51.074;-1.790;2024-02-21T08:03:33;8.75;;;1.58;;
78406;SDS011;67692;51.074;-1.790;2024-02-21T08:06:00;8.30;;;1.38;;
78406;SDS011;67692;51.074;-1.790;2024-02-21T08:08:28;5.65;;;1.10;;
78406;SDS011;67692;51.074;-1.790;2024-02-21T08:10:55;7.93;;;1.23;;
78406;SDS011;67692;51.074;-1.790;2024-02-21T08:13:21;6.65;;;0.93;;
78406;SDS011;67692;51.074;-1.790;2024-02-21T08:15:48;6.70;;;1.05;;
78406;SDS011;67692;51.074;-1.790;2024-02-21T08:18:15;9.38;;;1.02;;
78406;SDS011;67692;51.074;-1.790;2024-02-21T08:20:42;7.45;;;1.20;;
78406;SDS011;67692;51.074;-1.790;2024-02-21T08:23:08;5.63;;;1.00;;
78406;SDS011;67692;51.074;-1.790;2024-02-21T08:25:36;4.28;;;1.00;;
78406;SDS011;67692;51.074;-1.790;2024-02-21T08:28:04;7.38;;;1.83;;
78406;SDS011;67692;51.074;-1.790;2024-02-21T08:30:31;11.02;;;1.20;;
78406;SDS011;67692;51.074;-1.790;2024-02-21T08:32:58;9.20;;;1.00;;
78406;SDS011;67692;51.074;-1.790;2024-02-21T08:35:25;7.85;;;1.20;;
78406;SDS011;67692;51.074;-1.790;2024-02-21T08:37:52;8.27;;;1.10;;
78406;SDS011;67692;51.074;-1.790;2024-02-21T08:40:18;6.10;;;1.25;;
78406;SDS011;67692;51.074;-1.790;2024-02-21T08:42:47;5.22;;;0.90;;
78406;SDS011;67692;51.074;-1.790;2024-02-21T08:45:15;7.15;;;1.10;;
78406;SDS011;67692;51.074;-1.790;2024-02-21T08:47:42;7.63;;;1.80;;
78406;SDS011;67692;51.074;-1.790;2024-02-21T08:50:09;6.53;;;1.15;;
78406;SDS011;67692;51.074;-1.790;2024-02-21T08:52:36;4.25;;;0.80;;
78406;SDS011;67692;51.074;-1.790;2024-02-21T08:55:03;6.05;;;0.95;;
78406;SDS011;67692;51.074;-1.790;2024-02-21T08:57:30;4.97;;;0.75;;
78406;SDS011;67692;51.074;-1.790;2024-02-21T09:00:03;5.90;;;0.77;;
78406;SDS011;67692;51.074;-1.790;2024-02-21T09:02:34;2.15;;;1.10;;
78406;SDS011;67692;51.074;-1.790;2024-02-21T09:05:01;5.75;;;1.27;;
78406;SDS011;67692;51.074;-1.790;2024-02-21T09:07:30;8.02;;;1.30;;
78406;SDS011;67692;51.074;-1.790;2024-02-21T09:09:56;7.88;;;1.13;;
78406;SDS011;67692;51.074;-1.790;2024-02-21T09:12:23;6.15;;;0.80;;
78406;SDS011;67692;51.074;-1.790;2024-02-21T09:14:50;2.70;;;0.80;;
78406;SDS011;67692;51.074;-1.790;2024-02-21T09:17:18;9.15;;;1.02;;
78406;SDS011;67692;51.074;-1.790;2024-02-21T09:19:45;9.07;;;1.30;;
78406;SDS011;67692;51.074;-1.790;2024-02-21T09:22:12;10.75;;;1.23;;
78406;SDS011;67692;51.074;-1.790;2024-02-21T09:24:39;7.95;;;1.10;;
78406;SDS011;67692;51.074;-1.790;2024-02-21T09:27:06;7.25;;;0.90;;
78406;SDS011;67692;51.074;-1.790;2024-02-21T09:29:32;4.75;;;0.80;;
78406;SDS011;67692;51.074;-1.790;2024-02-21T09:31:59;6.05;;;0.77;;
78406;SDS011;67692;51.074;-1.790;2024-02-21T09:34:27;6.85;;;0.90;;
78406;SDS011;67692;51.074;-1.790;2024-02-21T09:36:54;5.63;;;0.80;;
78406;SDS011;67692;51.074;-1.790;2024-02-21T09:39:20;7.75;;;1.00;;
78406;SDS011;67692;51.074;-1.790;2024-02-21T09:41:50;5.05;;;1.00;;
78406;SDS011;67692;51.074;-1.790;2024-02-21T09:44:20;6.13;;;0.93;;
78406;SDS011;67692;51.074;-1.790;2024-02-21T09:46:51;3.63;;;0.70;;
78406;SDS011;67692;51.074;-1.790;2024-02-21T09:49:26;6.22;;;1.08;;
78406;SDS011;67692;51.074;-1.790;2024-02-21T09:52:00;9.20;;;1.10;;
78406;SDS011;67692;51.074;-1.790;2024-02-21T09:54:28;6.15;;;0.77;;
78406;SDS011;67692;51.074;-1.790;2024-02-21T09:56:55;4.97;;;0.90;;
78406;SDS011;67692;51.074;-1.790;2024-02-21T09:59:23;9.27;;;1.40;;
78406;SDS011;67692;51.074;-1.790;2024-02-21T10:01:50;8.90;;;1.05;;
78406;SDS011;67692;51.074;-1.790;2024-02-21T10:04:17;4.82;;;0.80;;
78406;SDS011;67692;51.074;-1.790;2024-02-21T10:06:45;3.28;;;0.77;;
78406;SDS011;67692;51.074;-1.790;2024-02-21T10:09:19;3.20;;;0.65;;
78406;SDS011;67692;51.074;-1.790;2024-02-21T10:11:48;2.40;;;0.60;;
78406;SDS011;67692;51.074;-1.790;2024-02-21T10:14:14;5.45;;;0.65;;
78406;SDS011;67692;51.074;-1.790;2024-02-21T10:16:42;6.68;;;0.75;;
78406;SDS011;67692;51.074;-1.790;2024-02-21T10:19:15;2.85;;;0.55;;
78406;SDS011;67692;51.074;-1.790;2024-02-21T10:21:42;3.40;;;0.52;;
78406;SDS011;67692;51.074;-1.790;2024-02-21T10:24:11;8.80;;;0.93;;
78406;SDS011;67692;51.074;-1.790;2024-02-21T10:26:38;2.60;;;0.55;;
78406;SDS011;67692;51.074;-1.790;2024-02-21T10:29:05;6.20;;;0.60;;
78406;SDS011;67692;51.074;-1.790;2024-02-21T10:31:31;3.47;;;0.47;;
78406;SDS011;67692;51.074;-1.790;2024-02-21T10:33:58;6.20;;;0.70;;
78406;SDS011;67692;51.074;-1.790;2024-02-21T10:36:28;5.07;;;0.68;;
78406;SDS011;67692;51.074;-1.790;2024-02-21T10:38:55;4.28;;;0.70;;
78406;SDS011;67692;51.074;-1.790;2024-02-21T10:41:23;5.40;;;0.65;;
78406;SDS011;67692;51.074;-1.790;2024-02-21T10:43:52;4.93;;;0.90;;
78406;SDS011;67692;51.074;-1.790;2024-02-21T10:46:20;2.33;;;0.52;;
78406;SDS011;67692;51.074;-1.790;2024-02-21T10:48:48;6.97;;;0.80;;
78406;SDS011;67692;51.074;-1.790;2024-02-21T10:53:56;3.00;;;0.70;;
78406;SDS011;67692;51.074;-1.790;2024-02-21T10:56:31;3.22;;;0.65;;
78406;SDS011;67692;51.074;-1.790;2024-02-21T10:59:00;6.57;;;0.80;;
78406;SDS011;67692;51.074;-1.790;2024-02-21T11:01:28;4.97;;;1.10;;
78406;SDS011;67692;51.074;-1.790;2024-02-21T11:03:57;5.00;;;0.70;;
78406;SDS011;67692;51.074;-1.790;2024-02-21T11:06:26;3.58;;;0.50;;
78406;SDS011;67692;51.074;-1.790;2024-02-21T11:09:00;3.33;;;0.80;;
78406;SDS011;67692;51.074;-1.790;2024-02-21T11:11:30;7.95;;;0.70;;
78406;SDS011;67692;51.074;-1.790;2024-02-21T11:14:06;2.97;;;0.60;;
78406;SDS011;67692;51.074;-1.790;2024-02-21T11:16:36;5.63;;;1.10;;
78406;SDS011;67692;51.074;-1.790;2024-02-21T11:19:05;3.03;;;0.65;;
78406;SDS011;67692;51.074;-1.790;2024-02-21T11:21:33;4.13;;;0.70;;
78406;SDS011;67692;51.074;-1.790;2024-02-21T11:24:00;4.65;;;0.70;;
78406;SDS011;67692;51.074;-1.790;2024-02-21T11:26:28;3.40;;;0.80;;
78406;SDS011;67692;51.074;-1.790;2024-02-21T11:28:57;1.88;;;0.70;;
78406;SDS011;67692;51.074;-1.790;2024-02-21T11:31:25;6.60;;;0.70;;
78406;SDS011;67692;51.074;-1.790;2024-02-21T11:33:53;2.05;;;0.50;;
78406;SDS011;67692;51.074;-1.790;2024-02-21T11:36:26;4.88;;;0.65;;
78406;SDS011;67692;51.074;-1.790;2024-02-21T11:38:53;3.20;;;0.50;;
78406;SDS011;67692;51.074;-1.790;2024-02-21T11:41:20;1.63;;;0.47;;
78406;SDS011;67692;51.074;-1.790;2024-02-21T11:43:48;3.78;;;0.85;;
78406;SDS011;67692;51.074;-1.790;2024-02-21T11:46:16;3.63;;;0.55;;
78406;SDS011;67692;51.074;-1.790;2024-02-21T11:48:43;5.57;;;0.60;;
78406;SDS011;67692;51.074;-1.790;2024-02-21T11:51:20;1.48;;;0.40;;
78406;SDS011;67692;51.074;-1.790;2024-02-21T11:53:48;4.18;;;0.40;;
78406;SDS011;67692;51.074;-1.790;2024-02-21T11:56:14;3.70;;;0.73;;
78406;SDS011;67692;51.074;-1.790;2024-02-21T11:58:41;5.53;;;0.63;;
78406;SDS011;67692;51.074;-1.790;2024-02-21T12:01:08;3.70;;;0.60;;
78406;SDS011;67692;51.074;-1.790;2024-02-21T12:03:36;1.58;;;0.57;;
78406;SDS011;67692;51.074;-1.790;2024-02-21T12:06:03;1.85;;;0.40;;
78406;SDS011;67692;51.074;-1.790;2024-02-21T12:08:40;3.22;;;0.70;;
78406;SDS011;67692;51.074;-1.790;2024-02-21T12:11:15;5.80;;;0.85;;
78406;SDS011;67692;51.074;-1.790;2024-02-21T12:13:43;1.27;;;0.30;;
78406;SDS011;67692;51.074;-1.790;2024-02-21T12:16:10;4.40;;;0.65;;
78406;SDS011;67692;51.074;-1.790;2024-02-21T12:18:38;2.13;;;0.55;;
78406;SDS011;67692;51.074;-1.790;2024-02-21T12:21:05;6.47;;;0.60;;
78406;SDS011;67692;51.074;-1.790;2024-02-21T12:23:32;1.50;;;0.50;;
78406;SDS011;67692;51.074;-1.790;2024-02-21T12:26:00;1.73;;;0.50;;
78406;SDS011;67692;51.074;-1.790;2024-02-21T12:28:27;0.90;;;0.45;;
78406;SDS011;67692;51.074;-1.790;2024-02-21T12:30:53;3.55;;;0.60;;
78406;SDS011;67692;51.074;-1.790;2024-02-21T12:33:20;2.13;;;0.45;;
78406;SDS011;67692;51.074;-1.790;2024-02-21T12:35:49;4.95;;;0.60;;
78406;SDS011;67692;51.074;-1.790;2024-02-21T12:38:15;2.17;;;0.30;;
78406;SDS011;67692;51.074;-1.790;2024-02-21T12:40:43;5.47;;;0.50;;
78406;SDS011;67692;51.074;-1.790;2024-02-21T12:43:09;6.15;;;0.68;;
78406;SDS011;67692;51.074;-1.790;2024-02-21T12:45:36;2.88;;;0.40;;
78406;SDS011;67692;51.074;-1.790;2024-02-21T12:48:03;2.13;;;0.47;;
78406;SDS011;67692;51.074;-1.790;2024-02-21T12:50:30;4.43;;;0.55;;
78406;SDS011;67692;51.074;-1.790;2024-02-21T12:52:59;5.03;;;0.77;;
78406;SDS011;67692;51.074;-1.790;2024-02-21T12:55:27;6.90;;;0.90;;
78406;SDS011;67692;51.074;-1.790;2024-02-21T12:57:54;3.92;;;0.80;;
78406;SDS011;67692;51.074;-1.790;2024-02-21T13:00:22;4.38;;;0.65;;
78406;SDS011;67692;51.074;-1.790;2024-02-21T13:02:51;2.85;;;0.60;;
78406;SDS011;67692;51.074;-1.790;2024-02-21T13:05:18;3.15;;;0.60;;
78406;SDS011;67692;51.074;-1.790;2024-02-21T13:07:44;3.75;;;0.70;;
78406;SDS011;67692;51.074;-1.790;2024-02-21T13:10:13;2.42;;;0.43;;
78406;SDS011;67692;51.074;-1.790;2024-02-21T13:12:39;2.88;;;0.70;;
78406;SDS011;67692;51.074;-1.790;2024-02-21T13:15:06;9.07;;;1.30;;
78406;SDS011;67692;51.074;-1.790;2024-02-21T13:17:36;6.05;;;0.80;;
78406;SDS011;67692;51.074;-1.790;2024-02-21T13:20:04;2.40;;;0.60;;
78406;SDS011;67692;51.074;-1.790;2024-02-21T13:22:33;4.22;;;1.38;;
78406;SDS011;67692;51.074;-1.790;2024-02-21T13:25:00;4.05;;;0.60;;
78406;SDS011;67692;51.074;-1.790;2024-02-21T13:27:28;3.83;;;1.00;;
78406;SDS011;67692;51.074;-1.790;2024-02-21T13:29:54;5.38;;;0.80;;
78406;SDS011;67692;51.074;-1.790;2024-02-21T13:32:21;2.38;;;0.80;;
78406;SDS011;67692;51.074;-1.790;2024-02-21T13:34:47;4.65;;;1.15;;
78406;SDS011;67692;51.074;-1.790;2024-02-21T13:37:15;8.98;;;1.00;;
78406;SDS011;67692;51.074;-1.790;2024-02-21T13:39:42;6.05;;;1.20;;
78406;SDS011;67692;51.074;-1.790;2024-02-21T13:42:08;5.00;;;1.38;;
78406;SDS011;67692;51.074;-1.790;2024-02-21T13:44:36;4.63;;;0.85;;
78406;SDS011;67692;51.074;-1.790;2024-02-21T13:47:03;4.45;;;0.80;;
78406;SDS011;67692;51.074;-1.790;2024-02-21T13:49:33;4.00;;;0.63;;
78406;SDS011;67692;51.074;-1.790;2024-02-21T13:52:00;5.20;;;0.75;;
78406;SDS011;67692;51.074;-1.790;2024-02-21T13:54:27;8.05;;;0.80;;
78406;SDS011;67692;51.074;-1.790;2024-02-21T13:56:54;5.25;;;0.93;;
78406;SDS011;67692;51.074;-1.790;2024-02-21T13:59:20;7.25;;;0.90;;
78406;SDS011;67692;51.074;-1.790;2024-02-21T14:01:48;9.20;;;1.13;;
78406;SDS011;67692;51.074;-1.790;2024-02-21T14:04:15;2.65;;;0.57;;
78406;SDS011;67692;51.074;-1.790;2024-02-21T14:06:42;5.03;;;0.90;;
78406;SDS011;67692;51.074;-1.790;2024-02-21T14:09:09;3.03;;;1.00;;
78406;SDS011;67692;51.074;-1.790;2024-02-21T14:11:36;4.50;;;0.70;;
78406;SDS011;67692;51.074;-1.790;2024-02-21T14:14:03;3.10;;;0.70;;
78406;SDS011;67692;51.074;-1.790;2024-02-21T14:16:30;2.45;;;0.52;;
78406;SDS011;67692;51.074;-1.790;2024-02-21T14:18:58;5.50;;;1.20;;
78406;SDS011;67692;51.074;-1.790;2024-02-21T14:21:24;3.80;;;0.95;;
78406;SDS011;67692;51.074;-1.790;2024-02-21T14:23:51;3.70;;;0.75;;
78406;SDS011;67692;51.074;-1.790;2024-02-21T14:26:18;6.78;;;1.20;;
78406;SDS011;67692;51.074;-1.790;2024-02-21T14:28:46;5.50;;;1.17;;
78406;SDS011;67692;51.074;-1.790;2024-02-21T14:31:13;8.60;;;1.20;;
78406;SDS011;67692;51.074;-1.790;2024-02-21T14:33:40;6.07;;;1.15;;